createdAt,value
2017-02-04T00:00:44.325Z,1001.43
2017-02-04T00:01:44.264Z,1001.4
2017-02-04T00:02:44.201Z,1001.45
2017-02-04T00:03:44.138Z,1001.39
2017-02-04T00:04:44.074Z,1001.38
2017-02-04T00:05:44.012Z,1001.38
2017-02-04T00:06:43.950Z,1001.38
2017-02-04T00:07:43.885Z,1001.38
2017-02-04T00:08:43.823Z,1001.36
2017-02-04T00:09:43.760Z,1001.38
2017-02-04T00:10:43.697Z,1001.37
2017-02-04T00:11:43.633Z,1001.37
2017-02-04T00:12:43.571Z,1001.35
2017-02-04T00:13:43.508Z,1001.35
2017-02-04T00:14:43.443Z,1001.35
2017-02-04T00:15:43.382Z,1001.34
2017-02-04T00:16:43.319Z,1001.31
2017-02-04T00:17:43.259Z,1001.33
2017-02-04T00:18:43.192Z,1001.35
2017-02-04T00:19:43.158Z,1001.34
2017-02-04T00:20:43.067Z,1001.34
2017-02-04T00:21:43.006Z,1001.35
2017-02-04T00:22:42.941Z,1001.28
2017-02-04T00:23:42.880Z,1001.29
2017-02-04T00:24:42.818Z,1001.32
2017-02-04T00:25:42.752Z,1001.32
2017-02-04T00:26:42.690Z,1001.31
2017-02-04T00:27:42.628Z,1001.31
2017-02-04T00:28:42.563Z,1001.28
2017-02-04T00:29:42.500Z,1001.3
2017-02-04T00:30:42.436Z,1001.27
2017-02-04T00:31:42.375Z,1001.28
2017-02-04T00:32:42.312Z,1001.3
2017-02-04T00:33:42.248Z,1001.33
2017-02-04T00:34:42.186Z,1001.34
2017-02-04T00:35:42.124Z,1001.37
2017-02-04T00:36:42.059Z,1001.33
2017-02-04T00:37:41.996Z,1001.35
2017-02-04T00:38:41.936Z,1001.37
2017-02-04T00:39:41.871Z,1001.39
2017-02-04T00:40:41.805Z,1001.42
2017-02-04T00:41:41.745Z,1001.44
2017-02-04T00:42:41.682Z,1001.45
2017-02-04T00:43:41.620Z,1001.49
2017-02-04T00:44:41.559Z,1001.43
2017-02-04T00:45:41.494Z,1001.45
2017-02-04T00:46:41.431Z,1001.44
2017-02-04T00:47:41.367Z,1001.42
2017-02-04T00:48:41.306Z,1001.47
2017-02-04T00:49:41.243Z,1001.47
2017-02-04T00:50:41.180Z,1001.45
2017-02-04T00:51:41.117Z,1001.46
2017-02-04T00:52:41.054Z,1001.4
2017-02-04T00:53:40.991Z,1001.41
2017-02-04T00:54:40.927Z,1001.38
2017-02-04T00:55:40.866Z,1001.4
2017-02-04T00:56:40.802Z,1001.41
2017-02-04T00:57:40.741Z,1001.38
2017-02-04T00:58:40.676Z,1001.39
2017-02-04T00:59:40.613Z,1001.38
2017-02-04T01:01:10.676Z,1001.33
2017-02-04T01:02:10.611Z,1001.34
2017-02-04T01:03:10.549Z,1001.33
2017-02-04T01:04:10.484Z,1001.33
2017-02-04T01:05:10.422Z,1001.31
2017-02-04T01:06:10.359Z,1001.3
2017-02-04T01:07:10.296Z,1001.3
2017-02-04T01:08:10.233Z,1001.24
2017-02-04T01:09:10.171Z,1001.3
2017-02-04T01:10:10.108Z,1001.3
2017-02-04T01:11:10.044Z,1001.29
2017-02-04T01:12:09.980Z,1001.31
2017-02-04T01:13:09.919Z,1001.28
2017-02-04T01:14:09.855Z,1001.32
2017-02-04T01:15:09.797Z,1001.36
2017-02-04T01:16:09.729Z,1001.34
2017-02-04T01:17:09.667Z,1001.29
2017-02-04T01:18:09.604Z,1001.26
2017-02-04T01:19:09.541Z,1001.23
2017-02-04T01:20:09.477Z,1001.23
2017-02-04T01:21:09.415Z,1001.25
2017-02-04T01:22:09.351Z,1001.26
2017-02-04T01:23:09.290Z,1001.22
2017-02-04T01:24:09.227Z,1001.25
2017-02-04T01:25:09.161Z,1001.22
2017-02-04T01:26:09.104Z,1001.22
2017-02-04T01:27:09.037Z,1001.2
2017-02-04T01:28:08.975Z,1001.22
2017-02-04T01:29:08.912Z,1001.18
2017-02-04T01:30:08.848Z,1001.21
2017-02-04T01:31:08.785Z,1001.25
2017-02-04T01:32:08.722Z,1001.23
2017-02-04T01:33:08.659Z,1001.19
2017-02-04T01:34:08.598Z,1001.2
2017-02-04T01:35:08.534Z,1001.2
2017-02-04T01:36:08.474Z,1001.19
2017-02-04T01:37:08.408Z,1001.14
2017-02-04T01:38:08.345Z,1001.11
2017-02-04T01:39:08.282Z,1001.1
2017-02-04T01:40:08.220Z,1001.09
2017-02-04T01:41:08.156Z,1001.09
2017-02-04T01:42:08.095Z,1001.05
2017-02-04T01:43:08.032Z,1001.05
2017-02-04T01:44:07.971Z,1001.12
2017-02-04T01:45:07.905Z,1001.11
2017-02-04T01:46:07.843Z,1001.12
2017-02-04T01:47:07.778Z,1001.09
2017-02-04T01:48:07.715Z,1001.1
2017-02-04T01:49:07.653Z,1001.05
2017-02-04T01:50:07.742Z,1001.06
2017-02-04T01:51:07.529Z,1000.99
2017-02-04T01:52:07.470Z,1001
2017-02-04T01:53:07.401Z,1001.03
2017-02-04T01:54:07.342Z,1001.02
2017-02-04T01:55:07.276Z,1001
2017-02-04T01:56:07.213Z,1000.98
2017-02-04T01:57:07.152Z,1001.01
2017-02-04T01:58:07.087Z,1001.05
2017-02-04T01:59:07.024Z,1001.04
2017-02-04T02:00:06.962Z,1001.01
2017-02-04T02:01:06.901Z,1001.01
2017-02-04T02:02:06.837Z,1001.02
2017-02-04T02:03:06.775Z,1001.06
2017-02-04T02:04:06.711Z,1001.05
2017-02-04T02:05:06.647Z,1001.02
2017-02-04T02:06:06.585Z,1001
2017-02-04T02:07:06.523Z,1000.95
2017-02-04T02:08:06.458Z,1000.95
2017-02-04T02:09:06.397Z,1000.94
2017-02-04T02:10:06.333Z,1000.89
2017-02-04T02:11:06.270Z,1000.84
2017-02-04T02:12:06.207Z,1000.85
2017-02-04T02:13:06.145Z,1000.84
2017-02-04T02:14:06.081Z,1000.9
2017-02-04T02:15:06.020Z,1000.87
2017-02-04T02:16:05.956Z,1000.85
2017-02-04T02:17:05.894Z,1000.85
2017-02-04T02:18:05.830Z,1000.87
2017-02-04T02:19:05.769Z,1000.87
2017-02-04T02:20:05.954Z,1000.91
2017-02-04T02:21:05.641Z,1000.87
2017-02-04T02:22:05.578Z,1000.83
2017-02-04T02:23:05.517Z,1000.91
2017-02-04T02:24:05.453Z,1000.87
2017-02-04T02:25:05.389Z,1000.76
2017-02-04T02:26:05.327Z,1000.72
2017-02-04T02:27:05.264Z,1000.74
2017-02-04T02:28:05.201Z,1000.69
2017-02-04T02:29:05.138Z,1000.72
2017-02-04T02:30:05.079Z,1000.65
2017-02-04T02:31:05.014Z,1000.69
2017-02-04T02:32:05.152Z,1000.76
2017-02-04T02:33:04.887Z,1000.76
2017-02-04T02:34:04.824Z,1000.69
2017-02-04T02:35:04.762Z,1000.65
2017-02-04T02:36:04.702Z,1000.59
2017-02-04T02:37:04.637Z,1000.54
2017-02-04T02:38:04.574Z,1000.47
2017-02-04T02:39:04.510Z,1000.47
2017-02-04T02:40:04.448Z,1000.51
2017-02-04T02:41:04.388Z,1000.5
2017-02-04T02:42:04.323Z,1000.49
2017-02-04T02:43:04.259Z,1000.51
2017-02-04T02:44:04.196Z,1000.52
2017-02-04T02:45:04.134Z,1000.45
2017-02-04T02:46:04.072Z,1000.47
2017-02-04T02:47:04.008Z,1000.45
2017-02-04T02:48:03.946Z,1000.45
2017-02-04T02:49:03.881Z,1000.5
2017-02-04T02:50:03.819Z,1000.47
2017-02-04T02:51:03.756Z,1000.5
2017-02-04T02:52:03.693Z,1000.56
2017-02-04T02:53:03.631Z,1000.51
2017-02-04T02:54:03.568Z,1000.51
2017-02-04T02:55:03.505Z,1000.55
2017-02-04T02:56:03.442Z,1000.55
2017-02-04T02:57:03.377Z,1000.54
2017-02-04T02:58:03.315Z,1000.57
2017-02-04T02:59:03.255Z,1000.58
2017-02-04T03:00:03.190Z,1000.61
2017-02-04T03:01:03.126Z,1000.63
2017-02-04T03:02:03.064Z,1000.64
2017-02-04T03:03:03.002Z,1000.72
2017-02-04T03:04:02.938Z,1000.7
2017-02-04T03:05:02.875Z,1000.67
2017-02-04T03:06:02.814Z,1000.71
2017-02-04T03:07:02.751Z,1000.75
2017-02-04T03:08:02.686Z,1000.72
2017-02-04T03:09:02.626Z,1000.71
2017-02-04T03:10:02.562Z,1000.7
2017-02-04T03:11:02.499Z,1000.66
2017-02-04T03:12:02.436Z,1000.67
2017-02-04T03:13:02.373Z,1000.65
2017-02-04T03:14:02.309Z,1000.67
2017-02-04T03:15:02.247Z,1000.67
2017-02-04T03:16:02.185Z,1000.61
2017-02-04T03:17:02.120Z,1000.65
2017-02-04T03:18:02.058Z,1000.7
2017-02-04T03:19:01.995Z,1000.7
2017-02-04T03:20:01.933Z,1000.76
2017-02-04T03:21:01.873Z,1000.72
2017-02-04T03:22:01.808Z,1000.77
2017-02-04T03:23:01.743Z,1000.75
2017-02-04T03:24:01.682Z,1000.72
2017-02-04T03:25:01.619Z,1000.71
2017-02-04T03:26:01.556Z,1000.78
2017-02-04T03:27:01.492Z,1000.78
2017-02-04T03:28:01.430Z,1000.76
2017-02-04T03:29:01.367Z,1000.71
2017-02-04T03:30:01.304Z,1000.72
2017-02-04T03:31:01.241Z,1000.71
2017-02-04T03:32:01.177Z,1000.74
2017-02-04T03:33:01.115Z,1000.77
2017-02-04T03:34:01.051Z,1000.73
2017-02-04T03:35:00.989Z,1000.77
2017-02-04T03:36:00.927Z,1000.71
2017-02-04T03:37:00.863Z,1000.67
2017-02-04T03:38:00.800Z,1000.63
2017-02-04T03:39:00.740Z,1000.67
2017-02-04T03:40:00.677Z,1000.66
2017-02-04T03:41:00.612Z,1000.7
2017-02-04T03:42:00.548Z,1000.69
2017-02-04T03:43:00.486Z,1000.7
2017-02-04T03:44:00.425Z,1000.68
2017-02-04T03:45:00.360Z,1000.68
2017-02-04T03:46:00.296Z,1000.7
2017-02-04T03:47:00.234Z,1000.65
2017-02-04T03:48:00.172Z,1000.68
2017-02-04T03:49:00.108Z,1000.62
2017-02-04T03:50:00.045Z,1000.64
2017-02-04T03:50:59.984Z,1000.62
2017-02-04T03:51:59.919Z,1000.59
2017-02-04T03:52:59.857Z,1000.64
2017-02-04T03:53:59.795Z,1000.69
2017-02-04T03:54:59.733Z,1000.71
2017-02-04T03:55:59.668Z,1000.7
2017-02-04T03:56:59.607Z,1000.68
2017-02-04T03:57:59.543Z,1000.71
2017-02-04T03:58:59.480Z,1000.76
2017-02-04T03:59:59.416Z,1000.74
2017-02-04T04:00:59.353Z,1000.7
2017-02-04T04:01:59.292Z,1000.73
2017-02-04T04:02:59.227Z,1000.75
2017-02-04T04:03:59.168Z,1000.78
2017-02-04T04:04:59.103Z,1000.81
2017-02-04T04:05:59.040Z,1000.82
2017-02-04T04:06:58.976Z,1000.85
2017-02-04T04:07:58.914Z,1000.86
2017-02-04T04:08:58.849Z,1000.85
2017-02-04T04:09:58.788Z,1000.8
2017-02-04T04:10:58.726Z,1000.88
2017-02-04T04:11:58.663Z,1000.91
2017-02-04T04:12:58.601Z,1000.9
2017-02-04T04:13:58.541Z,1000.88
2017-02-04T04:14:58.478Z,1000.82
2017-02-04T04:15:58.413Z,1000.83
2017-02-04T04:16:58.350Z,1000.77
2017-02-04T04:17:58.285Z,1000.77
2017-02-04T04:18:58.224Z,1000.76
2017-02-04T04:19:58.160Z,1000.76
2017-02-04T04:20:58.098Z,1000.71
2017-02-04T04:21:58.033Z,1000.78
2017-02-04T04:22:57.971Z,1000.84
2017-02-04T04:23:57.909Z,1000.8
2017-02-04T04:24:57.846Z,1000.81
2017-02-04T04:25:57.784Z,1000.83
2017-02-04T04:26:57.721Z,1000.78
2017-02-04T04:27:57.658Z,1000.78
2017-02-04T04:28:57.594Z,1000.77
2017-02-04T04:29:57.532Z,1000.83
2017-02-04T04:30:57.468Z,1000.78
2017-02-04T04:31:57.405Z,1000.79
2017-02-04T04:32:57.343Z,1000.8
2017-02-04T04:33:57.279Z,1000.79
2017-02-04T04:34:57.217Z,1000.8
2017-02-04T04:35:57.153Z,1000.72
2017-02-04T04:36:57.091Z,1000.66
2017-02-04T04:37:57.028Z,1000.61
2017-02-04T04:38:56.996Z,1000.51
2017-02-04T04:39:56.908Z,1000.48
2017-02-04T04:40:56.839Z,1000.45
2017-02-04T04:41:56.777Z,1000.43
2017-02-04T04:42:56.714Z,1000.43
2017-02-04T04:43:56.651Z,1000.49
2017-02-04T04:44:56.587Z,1000.52
2017-02-04T04:45:56.526Z,1000.55
2017-02-04T04:46:56.462Z,1000.59
2017-02-04T04:47:56.398Z,1000.61
2017-02-04T04:48:56.337Z,1000.65
2017-02-04T04:49:56.274Z,1000.67
2017-02-04T04:50:56.210Z,1000.66
2017-02-04T04:51:56.149Z,1000.67
2017-02-04T04:52:56.084Z,1000.63
2017-02-04T04:53:56.022Z,1000.59
2017-02-04T04:54:55.959Z,1000.56
2017-02-04T04:55:55.897Z,1000.6
2017-02-04T04:56:55.834Z,1000.65
2017-02-04T04:57:55.769Z,1000.66
2017-02-04T04:58:55.707Z,1000.66
2017-02-04T04:59:55.645Z,1000.73
2017-02-04T05:00:55.582Z,1001.44
2017-02-04T05:01:55.519Z,1001.23
2017-02-04T05:02:55.456Z,1001.03
2017-02-04T05:03:55.393Z,1000.89
2017-02-04T05:04:55.329Z,1000.94
2017-02-04T05:05:55.268Z,1000.9
2017-02-04T05:06:55.204Z,1000.91
2017-02-04T05:07:55.142Z,1000.89
2017-02-04T05:08:55.079Z,1000.87
2017-02-04T05:09:55.016Z,1000.91
2017-02-04T05:10:54.953Z,1000.92
2017-02-04T05:11:54.891Z,1000.93
2017-02-04T05:12:54.827Z,1000.92
2017-02-04T05:13:54.763Z,1000.94
2017-02-04T05:14:54.702Z,1000.9
2017-02-04T05:15:54.637Z,1000.89
2017-02-04T05:16:54.577Z,1000.9
2017-02-04T05:17:54.513Z,1000.86
2017-02-04T05:18:54.451Z,1000.84
2017-02-04T05:19:54.385Z,1000.85
2017-02-04T05:20:54.324Z,1000.83
2017-02-04T05:21:54.261Z,1000.85
2017-02-04T05:22:54.198Z,1000.87
2017-02-04T05:23:54.134Z,1000.89
2017-02-04T05:24:54.072Z,1000.93
2017-02-04T05:25:54.014Z,1000.93
2017-02-04T05:26:53.946Z,1000.96
2017-02-04T05:27:53.904Z,1001
2017-02-04T05:28:53.821Z,1001.03
2017-02-04T05:29:53.757Z,1001.04
2017-02-04T05:30:53.695Z,1001.09
2017-02-04T05:31:53.631Z,1001.22
2017-02-04T05:32:53.569Z,1001.24
2017-02-04T05:33:53.505Z,1001.24
2017-02-04T05:34:53.442Z,1001.29
2017-02-04T05:35:53.379Z,1001.31
2017-02-04T05:36:53.316Z,1001.33
2017-02-04T05:37:53.253Z,1001.32
2017-02-04T05:38:53.188Z,1001.34
2017-02-04T05:39:53.127Z,1001.31
2017-02-04T05:40:53.063Z,1001.3
2017-02-04T05:41:53.000Z,1001.3
2017-02-04T05:42:52.938Z,1001.3
2017-02-04T05:43:52.876Z,1001.24
2017-02-04T05:44:52.812Z,1001.21
2017-02-04T05:45:52.757Z,1001.23
2017-02-04T05:46:52.686Z,1001.17
2017-02-04T05:47:52.625Z,1001.15
2017-02-04T05:48:52.560Z,1001.16
2017-02-04T05:49:52.495Z,1001.16
2017-02-04T05:50:52.432Z,1001.16
2017-02-04T05:51:52.372Z,1001.14
2017-02-04T05:52:52.307Z,1001.14
2017-02-04T05:53:52.244Z,1001.1
2017-02-04T05:54:52.182Z,1001.11
2017-02-04T05:55:52.119Z,1001.09
2017-02-04T05:56:52.054Z,1001.06
2017-02-04T05:57:51.993Z,1001.05
2017-02-04T05:58:51.930Z,1001.13
2017-02-04T05:59:51.865Z,1001.14
2017-02-04T06:00:51.802Z,1001.17
2017-02-04T06:01:51.740Z,1001.11
2017-02-04T06:02:51.677Z,1001.04
2017-02-04T06:03:51.612Z,1001.08
2017-02-04T06:04:51.550Z,1001.09
2017-02-04T06:05:51.487Z,1001.09
2017-02-04T06:06:51.423Z,1001.08
2017-02-04T06:07:51.362Z,1001.09
2017-02-04T06:08:51.299Z,1001.09
2017-02-04T06:09:51.235Z,1001.13
2017-02-04T06:10:51.172Z,1001.1
2017-02-04T06:11:51.109Z,1001.07
2017-02-04T06:12:51.051Z,1001.08
2017-02-04T06:13:50.982Z,1001.11
2017-02-04T06:14:50.919Z,1001.11
2017-02-04T06:15:50.857Z,1001.07
2017-02-04T06:16:50.793Z,1001.05
2017-02-04T06:17:50.729Z,1001.13
2017-02-04T06:18:50.666Z,1001.09
2017-02-04T06:19:50.604Z,1001.04
2017-02-04T06:20:50.541Z,1001.06
2017-02-04T06:21:50.477Z,1001.06
2017-02-04T06:22:50.415Z,1001.03
2017-02-04T06:23:50.352Z,1001.06
2017-02-04T06:24:50.289Z,1001.04
2017-02-04T06:25:50.225Z,1001.06
2017-02-04T06:26:50.162Z,1001.1
2017-02-04T06:27:50.099Z,1001.06
2017-02-04T06:28:50.035Z,1001.1
2017-02-04T06:29:49.972Z,1001.09
2017-02-04T06:30:49.907Z,1001.08
2017-02-04T06:31:49.847Z,1001.06
2017-02-04T06:32:49.781Z,1001.09
2017-02-04T06:33:49.718Z,1001.08
2017-02-04T06:34:49.656Z,1001.05
2017-02-04T06:35:49.593Z,1001.02
2017-02-04T06:36:49.530Z,1001.01
2017-02-04T06:37:49.468Z,1001
2017-02-04T06:38:49.404Z,1000.96
2017-02-04T06:39:49.341Z,1000.93
2017-02-04T06:40:49.278Z,1000.96
2017-02-04T06:41:49.214Z,1000.91
2017-02-04T06:42:49.156Z,1000.95
2017-02-04T06:43:49.096Z,1000.91
2017-02-04T06:44:49.025Z,1000.93
2017-02-04T06:45:48.962Z,1000.93
2017-02-04T06:46:48.899Z,1000.93
2017-02-04T06:47:48.836Z,1000.95
2017-02-04T06:48:48.770Z,1000.92
2017-02-04T06:49:48.710Z,1000.96
2017-02-04T06:50:48.646Z,1000.93
2017-02-04T06:51:48.583Z,1000.88
2017-02-04T06:52:48.520Z,1000.91
2017-02-04T06:53:48.456Z,1000.92
2017-02-04T06:54:48.393Z,1000.91
2017-02-04T06:55:48.331Z,1000.93
2017-02-04T06:56:48.267Z,1000.93
2017-02-04T06:57:48.204Z,1000.86
2017-02-04T06:58:48.142Z,1000.9
2017-02-04T06:59:48.077Z,1000.86
2017-02-04T07:00:48.313Z,1000.88
2017-02-04T07:01:47.953Z,1000.9
2017-02-04T07:02:47.887Z,1000.93
2017-02-04T07:03:47.824Z,1000.92
2017-02-04T07:04:47.762Z,1000.9
2017-02-04T07:05:47.699Z,1000.9
2017-02-04T07:06:47.644Z,1000.92
2017-02-04T07:07:47.571Z,1000.9
2017-02-04T07:08:47.509Z,1000.87
2017-02-04T07:09:47.445Z,1000.87
2017-02-04T07:10:47.381Z,1000.86
2017-02-04T07:11:47.327Z,1000.85
2017-02-04T07:12:47.265Z,1000.82
2017-02-04T07:13:47.192Z,1000.84
2017-02-04T07:14:47.137Z,1000.85
2017-02-04T07:15:47.067Z,1000.84
2017-02-04T07:16:47.003Z,1000.8
2017-02-04T07:17:46.948Z,1000.76
2017-02-04T07:18:46.886Z,1000.7
2017-02-04T07:19:46.813Z,1000.63
2017-02-04T07:20:46.751Z,1000.64
2017-02-04T07:21:46.687Z,1000.65
2017-02-04T07:22:46.624Z,1000.64
2017-02-04T07:23:46.561Z,1000.72
2017-02-04T07:24:46.496Z,1000.7
2017-02-04T07:25:46.435Z,1000.72
2017-02-04T07:26:46.371Z,1000.69
2017-02-04T07:27:46.309Z,1000.72
2017-02-04T07:28:46.245Z,1000.75
2017-02-04T07:29:46.182Z,1000.78
2017-02-04T07:30:46.121Z,1000.77
2017-02-04T07:31:46.053Z,1000.84
2017-02-04T07:32:45.992Z,1000.87
2017-02-04T07:33:45.929Z,1000.89
2017-02-04T07:34:45.866Z,1000.85
2017-02-04T07:35:45.802Z,1000.87
2017-02-04T07:36:45.740Z,1000.84
2017-02-04T07:37:45.678Z,1000.84
2017-02-04T07:38:45.614Z,1000.87
2017-02-04T07:39:45.550Z,1000.89
2017-02-04T07:40:45.485Z,1000.92
2017-02-04T07:41:45.422Z,1000.9
2017-02-04T07:42:45.368Z,1000.86
2017-02-04T07:43:45.297Z,1000.84
2017-02-04T07:44:45.234Z,1000.8
2017-02-04T07:45:45.171Z,1000.76
2017-02-04T07:46:45.110Z,1000.77
2017-02-04T07:47:45.045Z,1000.78
2017-02-04T07:48:44.980Z,1000.73
2017-02-04T07:49:44.917Z,1000.72
2017-02-04T07:50:45.154Z,1000.75
2017-02-04T07:51:44.790Z,1000.77
2017-02-04T07:52:44.728Z,1000.8
2017-02-04T07:53:44.663Z,1000.82
2017-02-04T07:54:44.600Z,1000.85
2017-02-04T07:55:44.538Z,1000.85
2017-02-04T07:56:44.474Z,1000.77
2017-02-04T07:57:44.412Z,1000.79
2017-02-04T07:58:44.348Z,1000.87
2017-02-04T07:59:44.286Z,1000.89
2017-02-04T08:00:44.222Z,1000.95
2017-02-04T08:01:44.159Z,1000.95
2017-02-04T08:02:44.096Z,1000.97
2017-02-04T08:03:44.031Z,1000.93
2017-02-04T08:04:43.967Z,1000.89
2017-02-04T08:05:43.906Z,1000.83
2017-02-04T08:06:43.841Z,1000.82
2017-02-04T08:07:43.780Z,1000.74
2017-02-04T08:08:43.716Z,1000.79
2017-02-04T08:09:43.653Z,1000.74
2017-02-04T08:10:43.588Z,1000.67
2017-02-04T08:11:43.525Z,1000.66
2017-02-04T08:12:43.466Z,1000.68
2017-02-04T08:13:43.406Z,1000.78
2017-02-04T08:14:43.335Z,1000.79
2017-02-04T08:15:43.273Z,1000.81
2017-02-04T08:16:43.209Z,1000.84
2017-02-04T08:17:43.146Z,1000.87
2017-02-04T08:18:43.081Z,1000.87
2017-02-04T08:19:43.018Z,1000.88
2017-02-04T08:20:42.956Z,1000.82
2017-02-04T08:21:42.892Z,1000.88
2017-02-04T08:22:42.828Z,1000.88
2017-02-04T08:23:42.767Z,1000.87
2017-02-04T08:24:42.713Z,1000.87
2017-02-04T08:25:42.639Z,1000.89
2017-02-04T08:26:42.576Z,1000.96
2017-02-04T08:27:42.514Z,1000.93
2017-02-04T08:28:42.451Z,1000.92
2017-02-04T08:29:42.390Z,1000.91
2017-02-04T08:30:42.324Z,1000.93
2017-02-04T08:31:42.260Z,1000.95
2017-02-04T08:32:42.198Z,1000.95
2017-02-04T08:33:42.134Z,1000.94
2017-02-04T08:34:42.071Z,1000.93
2017-02-04T08:35:42.008Z,1000.98
2017-02-04T08:36:41.944Z,1000.93
2017-02-04T08:37:41.880Z,1000.95
2017-02-04T08:38:41.823Z,1000.89
2017-02-04T08:39:41.754Z,1000.91
2017-02-04T08:40:41.691Z,1000.93
2017-02-04T08:41:41.628Z,1000.94
2017-02-04T08:42:41.596Z,1000.94
2017-02-04T08:43:41.503Z,1000.96
2017-02-04T08:44:41.436Z,1000.91
2017-02-04T08:45:41.375Z,1000.89
2017-02-04T08:46:41.312Z,1000.87
2017-02-04T08:47:41.247Z,1000.83
2017-02-04T08:48:41.185Z,1000.84
2017-02-04T08:49:41.122Z,1000.84
2017-02-04T08:50:41.058Z,1000.85
2017-02-04T08:51:40.994Z,1000.79
2017-02-04T08:52:40.932Z,1000.85
2017-02-04T08:53:40.869Z,1000.85
2017-02-04T08:54:40.805Z,1000.88
2017-02-04T08:55:40.743Z,1000.88
2017-02-04T08:56:40.681Z,1000.87
2017-02-04T08:57:40.615Z,1000.91
2017-02-04T08:58:40.552Z,1000.91
2017-02-04T08:59:40.491Z,1000.91
2017-02-04T09:00:40.427Z,1000.89
2017-02-04T09:01:40.364Z,1000.91
2017-02-04T09:02:40.301Z,1000.94
2017-02-04T09:03:40.238Z,1000.9
2017-02-04T09:04:40.173Z,1000.89
2017-02-04T09:05:40.112Z,1000.85
2017-02-04T09:06:40.046Z,1000.8
2017-02-04T09:07:39.984Z,1000.82
2017-02-04T09:08:39.921Z,1000.84
2017-02-04T09:09:39.857Z,1000.89
2017-02-04T09:10:39.795Z,1000.89
2017-02-04T09:11:39.729Z,1000.83
2017-02-04T09:12:39.667Z,1000.79
2017-02-04T09:13:39.603Z,1000.79
2017-02-04T09:14:39.541Z,1000.77
2017-02-04T09:15:39.478Z,1000.79
2017-02-04T09:16:39.414Z,1000.8
2017-02-04T09:17:39.352Z,1000.76
2017-02-04T09:18:39.287Z,1000.75
2017-02-04T09:19:39.225Z,1000.8
2017-02-04T09:20:39.160Z,1000.77
2017-02-04T09:21:39.097Z,1000.78
2017-02-04T09:22:39.035Z,1000.77
2017-02-04T09:23:38.972Z,1000.72
2017-02-04T09:24:38.908Z,1000.75
2017-02-04T09:25:38.846Z,1000.72
2017-02-04T09:26:38.783Z,1000.77
2017-02-04T09:27:38.716Z,1000.73
2017-02-04T09:28:38.654Z,1000.77
2017-02-04T09:29:38.592Z,1000.81
2017-02-04T09:30:38.529Z,1000.88
2017-02-04T09:31:38.465Z,1000.87
2017-02-04T09:32:38.402Z,1000.86
2017-02-04T09:33:38.339Z,1000.85
2017-02-04T09:34:38.275Z,1000.82
2017-02-04T09:35:38.211Z,1000.81
2017-02-04T09:36:38.149Z,1000.84
2017-02-04T09:37:38.084Z,1000.83
2017-02-04T09:38:38.022Z,1000.85
2017-02-04T09:39:37.959Z,1000.85
2017-02-04T09:40:37.896Z,1000.83
2017-02-04T09:41:37.832Z,1000.83
2017-02-04T09:42:37.770Z,1000.8
2017-02-04T09:43:37.707Z,1000.78
2017-02-04T09:44:37.642Z,1000.82
2017-02-04T09:45:37.580Z,1000.79
2017-02-04T09:46:37.514Z,1000.76
2017-02-04T09:47:37.453Z,1000.8
2017-02-04T09:48:37.390Z,1000.79
2017-02-04T09:49:37.324Z,1000.78
2017-02-04T09:50:37.367Z,1000.76
2017-02-04T09:51:37.200Z,1000.75
2017-02-04T09:52:37.137Z,1000.73
2017-02-04T09:53:37.072Z,1000.75
2017-02-04T09:54:37.010Z,1000.74
2017-02-04T09:55:37.197Z,1000.74
2017-02-04T09:56:36.883Z,1000.77
2017-02-04T09:57:36.820Z,1000.74
2017-02-04T09:58:36.757Z,1000.78
2017-02-04T09:59:36.694Z,1000.73
2017-02-04T10:00:36.630Z,1000.71
2017-02-04T10:01:36.567Z,1000.75
2017-02-04T10:02:36.505Z,1000.74
2017-02-04T10:03:36.441Z,1000.72
2017-02-04T10:04:36.377Z,1000.73
2017-02-04T10:05:36.313Z,1000.79
2017-02-04T10:06:36.252Z,1000.74
2017-02-04T10:07:36.189Z,1000.78
2017-02-04T10:08:36.124Z,1000.73
2017-02-04T10:09:36.062Z,1000.75
2017-02-04T10:10:35.997Z,1000.72
2017-02-04T10:11:35.934Z,1000.71
2017-02-04T10:12:35.873Z,1000.69
2017-02-04T10:13:35.808Z,1000.68
2017-02-04T10:14:35.745Z,1000.68
2017-02-04T10:15:35.681Z,1000.65
2017-02-04T10:16:35.618Z,1000.7
2017-02-04T10:17:35.555Z,1000.7
2017-02-04T10:18:35.491Z,1000.7
2017-02-04T10:19:35.429Z,1000.67
2017-02-04T10:20:35.366Z,1000.64
2017-02-04T10:21:35.303Z,1000.62
2017-02-04T10:22:35.243Z,1000.58
2017-02-04T10:23:35.175Z,1000.55
2017-02-04T10:24:35.111Z,1000.57
2017-02-04T10:25:35.050Z,1000.58
2017-02-04T10:26:34.987Z,1000.49
2017-02-04T10:27:34.922Z,1000.46
2017-02-04T10:28:34.862Z,1000.49
2017-02-04T10:29:34.797Z,1000.45
2017-02-04T10:30:34.734Z,1000.46
2017-02-04T10:31:34.671Z,1000.45
2017-02-04T10:32:34.609Z,1000.42
2017-02-04T10:33:34.543Z,1000.42
2017-02-04T10:34:34.484Z,1000.41
2017-02-04T10:35:34.419Z,1000.44
2017-02-04T10:36:34.355Z,1000.46
2017-02-04T10:37:34.291Z,1000.46
2017-02-04T10:38:34.227Z,1000.46
2017-02-04T10:39:34.163Z,1000.51
2017-02-04T10:40:34.101Z,1000.49
2017-02-04T10:41:34.040Z,1000.5
2017-02-04T10:42:33.975Z,1000.49
2017-02-04T10:43:33.912Z,1000.46
2017-02-04T10:44:33.848Z,1000.46
2017-02-04T10:45:33.786Z,1000.44
2017-02-04T10:46:33.721Z,1000.5
2017-02-04T10:47:33.659Z,1000.49
2017-02-04T10:48:33.595Z,1000.55
2017-02-04T10:49:33.533Z,1000.54
2017-02-04T10:50:33.469Z,1000.53
2017-02-04T10:51:33.406Z,1000.5
2017-02-04T10:52:33.341Z,1000.47
2017-02-04T10:53:33.279Z,1000.49
2017-02-04T10:54:33.217Z,1000.41
2017-02-04T10:55:33.151Z,1000.4
2017-02-04T10:56:33.088Z,1000.41
2017-02-04T10:57:33.026Z,1000.42
2017-02-04T10:58:32.967Z,1000.39
2017-02-04T10:59:32.900Z,1000.44
2017-02-04T11:00:32.836Z,1000.44
2017-02-04T11:01:32.773Z,1000.5
2017-02-04T11:02:32.710Z,1000.48
2017-02-04T11:03:32.647Z,1000.48
2017-02-04T11:04:32.584Z,1000.45
2017-02-04T11:05:32.520Z,1000.44
2017-02-04T11:06:32.457Z,1000.42
2017-02-04T11:07:32.394Z,1000.38
2017-02-04T11:08:32.331Z,1000.38
2017-02-04T11:09:32.267Z,1000.39
2017-02-04T11:10:32.203Z,1000.37
2017-02-04T11:11:32.141Z,1000.34
2017-02-04T11:12:32.079Z,1000.28
2017-02-04T11:13:32.015Z,1000.22
2017-02-04T11:14:31.951Z,1000.2
2017-02-04T11:15:31.887Z,1000.18
2017-02-04T11:16:31.825Z,1000.1
2017-02-04T11:17:31.761Z,1000.07
2017-02-04T11:18:31.698Z,1000.03
2017-02-04T11:19:31.634Z,999.98
2017-02-04T11:20:31.571Z,999.96
2017-02-04T11:21:31.509Z,999.94
2017-02-04T11:22:31.444Z,999.95
2017-02-04T11:23:31.383Z,1000
2017-02-04T11:24:31.321Z,999.97
2017-02-04T11:25:31.255Z,1000
2017-02-04T11:26:31.192Z,999.99
2017-02-04T11:27:31.132Z,999.97
2017-02-04T11:28:31.064Z,1000.01
2017-02-04T11:29:31.001Z,999.97
2017-02-04T11:30:30.940Z,999.97
2017-02-04T11:31:30.875Z,999.92
2017-02-04T11:32:30.811Z,999.91
2017-02-04T11:33:30.750Z,999.88
2017-02-04T11:34:30.688Z,999.9
2017-02-04T11:35:30.620Z,999.95
2017-02-04T11:36:30.559Z,999.93
2017-02-04T11:37:30.496Z,999.93
2017-02-04T11:38:30.433Z,999.96
2017-02-04T11:39:30.368Z,999.87
2017-02-04T11:40:30.307Z,999.86
2017-02-04T11:41:30.243Z,999.85
2017-02-04T11:42:30.181Z,999.8
2017-02-04T11:43:30.117Z,999.8
2017-02-04T11:44:30.053Z,999.78
2017-02-04T11:45:29.990Z,999.78
2017-02-04T11:46:29.927Z,999.76
2017-02-04T11:47:29.863Z,999.73
2017-02-04T11:48:29.801Z,999.74
2017-02-04T11:49:29.736Z,999.71
2017-02-04T11:50:29.673Z,999.68
2017-02-04T11:51:29.611Z,999.68
2017-02-04T11:52:29.547Z,999.74
2017-02-04T11:53:29.485Z,999.68
2017-02-04T11:54:29.421Z,999.69
2017-02-04T11:55:29.358Z,999.63
2017-02-04T11:56:29.294Z,999.63
2017-02-04T11:57:29.231Z,999.59
2017-02-04T11:58:29.167Z,999.64
2017-02-04T11:59:29.108Z,999.61
2017-02-04T12:00:29.041Z,999.6
2017-02-04T12:01:28.977Z,999.6
2017-02-04T12:02:28.915Z,999.63
2017-02-04T12:03:28.852Z,999.6
2017-02-04T12:04:28.789Z,999.61
2017-02-04T12:05:28.726Z,999.6
2017-02-04T12:06:28.663Z,999.61
2017-02-04T12:07:28.600Z,999.58
2017-02-04T12:08:28.536Z,999.59
2017-02-04T12:09:28.472Z,999.56
2017-02-04T12:10:28.410Z,999.55